createdAt,value
2019-05-17T00:00:01.521Z,99.70
2019-05-17T00:04:07.029Z,99.70
2019-05-17T00:08:08.644Z,99.50
2019-05-17T00:12:10.622Z,99.50
2019-05-17T00:16:12.533Z,99.70
2019-05-17T00:20:17.334Z,99.60
2019-05-17T00:24:19.478Z,99.40
2019-05-17T00:28:21.381Z,99.60
2019-05-17T00:32:23.278Z,99.80
2019-05-17T00:36:26.910Z,99.70
2019-05-17T00:40:30.014Z,99.80
2019-05-17T00:44:31.908Z,99.90
2019-05-17T00:48:33.907Z,99.90
2019-05-17T00:52:36.788Z,99.90
2019-05-17T00:56:39.924Z,99.90
2019-05-17T01:00:41.835Z,99.80
2019-05-17T01:04:43.756Z,99.90
2019-05-17T01:08:47.482Z,99.90
2019-05-17T01:12:49.322Z,99.90
2019-05-17T01:16:51.306Z,99.80
2019-05-17T01:20:53.219Z,99.60
2019-05-17T01:24:56.958Z,99.40
2019-05-17T01:28:59.173Z,99.80
2019-05-17T01:33:01.215Z,99.90
2019-05-17T01:37:03.123Z,99.90
2019-05-17T01:41:07.011Z,99.90
2019-05-17T01:45:10.325Z,99.90
2019-05-17T01:49:12.246Z,99.90
2019-05-17T01:53:16.455Z,99.90
2019-05-17T01:57:17.760Z,99.90
2019-05-17T02:01:19.650Z,99.90
2019-05-17T02:05:21.642Z,99.90
2019-05-17T02:09:34.917Z,99.90
2019-05-17T02:13:27.438Z,99.90
2019-05-17T02:17:29.488Z,99.90
2019-05-17T02:21:31.413Z,99.90
2019-05-17T02:25:33.310Z,99.90
2019-05-17T02:29:35.220Z,99.90
2019-05-17T02:33:37.192Z,99.90
2019-05-17T02:37:42.953Z,99.90
2019-05-17T02:41:44.242Z,99.70
2019-05-17T02:45:46.142Z,99.80
2019-05-17T02:49:48.093Z,99.70
2019-05-17T02:53:52.553Z,99.80
2019-05-17T02:57:53.616Z,99.60
2019-05-17T03:01:55.497Z,99.70
2019-05-17T03:05:57.413Z,99.70
2019-05-17T03:10:13.888Z,99.50
2019-05-17T03:14:04.119Z,99.70
2019-05-17T03:18:06.320Z,99.80
2019-05-17T03:22:13.142Z,99.60
2019-05-17T03:26:15.269Z,99.70
2019-05-17T03:30:19.275Z,99.90
2019-05-17T03:34:26.708Z,99.90
2019-05-17T03:38:27.527Z,99.90
2019-05-17T03:42:29.424Z,99.90
2019-05-17T03:46:33.462Z,99.90
2019-05-17T03:50:35.402Z,99.90
2019-05-17T03:54:37.283Z,99.90
2019-05-17T03:58:39.178Z,99.90
2019-05-17T04:02:44.621Z,99.90
2019-05-17T04:06:44.690Z,99.90
2019-05-17T04:10:46.588Z,99.90
2019-05-17T04:14:48.506Z,99.90
2019-05-17T04:18:53.316Z,99.90
2019-05-17T04:22:58.641Z,99.90
2019-05-17T04:27:03.627Z,99.90
2019-05-17T04:31:05.091Z,99.90
2019-05-17T04:35:07.306Z,99.90
2019-05-17T04:39:13.106Z,99.80
2019-05-17T04:43:13.854Z,99.50
2019-05-17T04:47:15.935Z,99.50
2019-05-17T04:51:17.840Z,99.40
2019-05-17T04:55:22.827Z,99.50
2019-05-17T04:59:24.299Z,99.40
2019-05-17T05:03:26.516Z,99.30
2019-05-17T05:07:29.506Z,99.40
2019-05-17T05:11:32.869Z,98.90
2019-05-17T05:15:44.924Z,99.30
2019-05-17T05:19:46.858Z,98.80
2019-05-17T05:23:48.754Z,98.60
2019-05-17T05:27:51.648Z,97.90
2019-05-17T05:31:53.543Z,97.80
2019-05-17T05:35:56.090Z,97.50
2019-05-17T05:40:07.132Z,97.90
2019-05-17T05:44:09.101Z,97.60
2019-05-17T05:48:12.877Z,97.50
2019-05-17T05:52:15.079Z,96.90
2019-05-17T05:56:17.005Z,96.50
2019-05-17T06:00:22.126Z,97.20
2019-05-17T06:04:24.330Z,96.80
2019-05-17T06:08:26.191Z,96.80
2019-05-17T06:12:28.366Z,96.50
2019-05-17T06:16:32.124Z,96.20
2019-05-17T06:20:33.908Z,96.00
2019-05-17T06:24:35.843Z,96.20
2019-05-17T06:28:37.739Z,95.40
2019-05-17T06:32:42.721Z,95.20
2019-05-17T06:36:43.439Z,94.90
2019-05-17T06:40:45.347Z,94.90
2019-05-17T06:44:47.369Z,94.50
2019-05-17T06:48:50.080Z,93.70
2019-05-17T06:52:53.235Z,94.20
2019-05-17T06:56:55.275Z,94.10
2019-05-17T07:00:57.177Z,94.30
2019-05-17T07:05:01.433Z,93.50
2019-05-17T07:09:05.298Z,93.20
2019-05-17T07:13:10.734Z,93.00
2019-05-17T07:17:12.359Z,92.70
2019-05-17T07:21:16.247Z,92.00
2019-05-17T07:25:19.819Z,91.80
2019-05-17T07:29:22.975Z,90.50
2019-05-17T07:33:24.897Z,91.20
2019-05-17T07:37:26.827Z,92.20
2019-05-17T07:41:29.853Z,91.20
2019-05-17T07:45:31.868Z,91.40
2019-05-17T07:49:33.804Z,91.10
2019-05-17T07:53:35.725Z,87.80
2019-05-17T07:57:37.638Z,87.40
2019-05-17T08:01:41.268Z,88.50
2019-05-17T08:05:43.399Z,85.20
2019-05-17T08:09:45.317Z,82.50
2019-05-17T08:13:47.241Z,83.30
2019-05-17T08:17:50.170Z,84.50
2019-05-17T08:21:52.237Z,83.70
2019-05-17T08:25:56.292Z,84.10
2019-05-17T08:29:59.700Z,82.70
2019-05-17T08:34:01.527Z,83.40
2019-05-17T08:38:03.429Z,79.30
2019-05-17T08:42:09.627Z,77.60
2019-05-17T08:46:10.727Z,76.20
2019-05-17T08:50:12.970Z,75.40
2019-05-17T08:54:14.904Z,77.10
2019-05-17T08:58:16.829Z,75.00
2019-05-17T09:02:19.907Z,74.10
2019-05-17T09:06:21.929Z,72.40
2019-05-17T09:10:24.625Z,72.20
2019-05-17T09:14:26.538Z,71.50
2019-05-17T09:18:30.205Z,70.10
2019-05-17T09:22:33.164Z,72.00
2019-05-17T09:26:35.120Z,71.20
2019-05-17T09:30:37.096Z,71.50
2019-05-17T09:34:40.379Z,71.60
2019-05-17T09:38:43.552Z,69.30
2019-05-17T09:42:45.455Z,68.30
2019-05-17T09:46:47.433Z,69.90
2019-05-17T09:50:50.485Z,67.00
2019-05-17T09:54:52.541Z,69.30
2019-05-17T09:58:54.449Z,66.30
2019-05-17T10:02:56.725Z,66.30
2019-05-17T10:06:59.359Z,68.20
2019-05-17T10:11:08.414Z,68.00
2019-05-17T10:15:10.011Z,68.40
2019-05-17T10:19:11.589Z,65.50
2019-05-17T10:23:13.572Z,65.60
2019-05-17T10:27:15.500Z,63.60
2019-05-17T10:31:19.723Z,63.40
2019-05-17T10:35:21.828Z,62.10
2019-05-17T10:39:23.719Z,61.90
2019-05-17T10:43:25.642Z,62.10
2019-05-17T10:47:29.921Z,62.00
2019-05-17T10:51:31.308Z,60.80
2019-05-17T10:55:33.218Z,63.50
2019-05-17T10:59:35.135Z,64.10
2019-05-17T11:03:39.581Z,59.40
2019-05-17T11:07:40.651Z,56.60
2019-05-17T11:11:42.588Z,55.90
2019-05-17T11:15:44.482Z,54.30
2019-05-17T11:19:46.405Z,55.90
2019-05-17T11:23:48.325Z,54.30
2019-05-17T11:27:50.259Z,54.20
2019-05-17T11:31:52.171Z,52.60
2019-05-17T11:35:54.559Z,51.10
2019-05-17T11:39:56.453Z,52.00
2019-05-17T11:43:58.376Z,50.50
2019-05-17T11:48:00.292Z,52.10
2019-05-17T11:52:02.211Z,49.90
2019-05-17T11:56:04.110Z,51.00
2019-05-17T12:00:09.341Z,51.10
2019-05-17T12:04:11.282Z,53.90
2019-05-17T12:08:13.174Z,54.40
2019-05-17T12:12:15.088Z,55.70
2019-05-17T12:16:17.009Z,53.40
2019-05-17T12:20:19.623Z,52.40
2019-05-17T12:24:21.538Z,51.00
2019-05-17T12:28:23.450Z,50.60
2019-05-17T12:32:25.432Z,52.00
2019-05-17T12:36:27.354Z,50.10
2019-05-17T12:40:29.257Z,46.30
2019-05-17T12:44:31.169Z,47.00
2019-05-17T12:48:33.090Z,47.60
2019-05-17T12:52:35.002Z,49.20
2019-05-17T12:56:36.927Z,49.80
2019-05-17T13:00:38.830Z,48.70
2019-05-17T13:04:40.744Z,47.10
2019-05-17T13:08:42.671Z,46.80
2019-05-17T13:12:44.603Z,46.50
2019-05-17T13:16:46.517Z,48.50
2019-05-17T13:20:48.418Z,47.90
2019-05-17T13:24:50.336Z,47.60
2019-05-17T13:28:52.336Z,45.00
2019-05-17T13:32:54.265Z,45.60
2019-05-17T13:36:56.504Z,42.60
2019-05-17T13:40:58.405Z,43.80
2019-05-17T13:45:00.452Z,44.30
2019-05-17T13:49:02.475Z,42.80
2019-05-17T13:53:04.511Z,41.50
2019-05-17T13:57:06.448Z,40.90
2019-05-17T14:01:09.734Z,38.80
2019-05-17T14:05:11.918Z,40.40
2019-05-17T14:09:13.815Z,41.80
2019-05-17T14:13:15.729Z,43.90
2019-05-17T14:17:18.595Z,45.90
2019-05-17T14:21:20.785Z,46.20
2019-05-17T14:25:22.698Z,47.50
2019-05-17T14:29:25.635Z,46.50
2019-05-17T14:33:27.702Z,46.20
2019-05-17T14:37:29.616Z,47.00
2019-05-17T14:41:31.524Z,48.90
2019-05-17T14:45:33.428Z,50.70
2019-05-17T14:49:35.339Z,48.00
2019-05-17T14:53:37.248Z,46.60
2019-05-17T14:57:42.765Z,47.00
2019-05-17T15:01:42.790Z,46.60
2019-05-17T15:05:44.794Z,45.10
2019-05-17T15:09:46.709Z,43.90
2019-05-17T15:13:48.709Z,44.50
2019-05-17T15:17:50.613Z,46.90
2019-05-17T15:21:52.517Z,47.10
2019-05-17T15:25:54.438Z,44.20
2019-05-17T15:29:56.332Z,44.10
2019-05-17T15:33:58.252Z,44.60
2019-05-17T15:38:00.213Z,44.60
2019-05-17T15:42:02.948Z,43.30
2019-05-17T15:46:04.922Z,43.80
2019-05-17T15:50:08.817Z,44.60
2019-05-17T15:54:10.980Z,45.20
2019-05-17T15:58:12.898Z,45.40
2019-05-17T16:02:14.804Z,46.10
2019-05-17T16:06:16.792Z,45.00
2019-05-17T16:10:20.012Z,47.20
2019-05-17T16:14:21.907Z,46.00
2019-05-17T16:18:23.819Z,45.90
2019-05-17T16:22:25.722Z,44.90
2019-05-17T16:26:27.908Z,46.40
2019-05-17T16:30:29.883Z,46.70
2019-05-17T16:34:31.802Z,46.90
2019-05-17T16:38:33.721Z,46.80
2019-05-17T16:42:35.802Z,47.50
2019-05-17T16:46:37.715Z,47.40
2019-05-17T16:50:39.689Z,47.60
2019-05-17T16:54:41.604Z,47.90
2019-05-17T16:58:44.475Z,48.50
2019-05-17T17:02:46.386Z,48.40
2019-05-17T17:06:48.289Z,49.20
2019-05-17T17:10:50.258Z,49.40
2019-05-17T17:14:52.131Z,50.70
2019-05-17T17:18:54.115Z,52.20
2019-05-17T17:22:57.197Z,53.10
2019-05-17T17:27:00.295Z,54.80
2019-05-17T17:31:02.428Z,56.40
2019-05-17T17:35:06.844Z,57.50
2019-05-17T17:39:08.947Z,57.60
2019-05-17T17:43:11.004Z,59.40
2019-05-17T17:47:12.929Z,59.80
2019-05-17T17:51:14.867Z,60.80
2019-05-17T17:55:16.867Z,62.40
2019-05-17T17:59:18.785Z,62.40
2019-05-17T18:03:20.701Z,63.60
2019-05-17T18:07:23.486Z,64.20
2019-05-17T18:11:25.414Z,65.30
2019-05-17T18:15:34.918Z,66.40
2019-05-17T18:19:36.814Z,66.50
2019-05-17T18:23:38.737Z,67.00
2019-05-17T18:27:40.728Z,68.20
2019-05-17T18:31:42.641Z,69.10
2019-05-17T18:35:44.701Z,70.00
2019-05-17T18:39:46.614Z,70.60
2019-05-17T18:43:50.171Z,70.90
2019-05-17T18:47:52.364Z,71.30
2019-05-17T18:51:54.314Z,72.20
2019-05-17T18:55:56.247Z,72.70
2019-05-17T18:59:58.186Z,73.40
2019-05-17T19:04:00.099Z,74.10
2019-05-17T19:08:02.342Z,74.30
2019-05-17T19:12:04.393Z,75.70
2019-05-17T19:16:07.341Z,76.20
2019-05-17T19:20:09.680Z,77.20
2019-05-17T19:24:11.573Z,77.80
2019-05-17T19:28:13.490Z,78.20
2019-05-17T19:32:15.494Z,79.10
2019-05-17T19:36:17.397Z,80.80
2019-05-17T19:40:19.524Z,81.70
2019-05-17T19:44:21.444Z,82.00
2019-05-17T19:48:23.349Z,83.90
2019-05-17T19:52:25.313Z,84.50
2019-05-17T19:56:27.235Z,84.20
2019-05-17T20:00:29.763Z,84.40
2019-05-17T20:04:31.704Z,84.60
2019-05-17T20:08:33.783Z,85.10
2019-05-17T20:12:35.696Z,85.50
2019-05-17T20:16:37.686Z,85.70
2019-05-17T20:20:39.597Z,86.10
2019-05-17T20:24:41.516Z,86.70
2019-05-17T20:28:43.497Z,87.00
2019-05-17T20:32:45.509Z,87.40
2019-05-17T20:36:47.412Z,87.80
2019-05-17T20:40:49.388Z,88.90
2019-05-17T20:44:51.311Z,89.30
2019-05-17T20:48:54.904Z,89.60
2019-05-17T20:52:56.814Z,89.40
2019-05-17T20:56:58.721Z,89.70
2019-05-17T21:01:00.654Z,90.00
2019-05-17T21:05:02.733Z,90.20
2019-05-17T21:09:06.740Z,90.30
2019-05-17T21:13:08.645Z,90.40
2019-05-17T21:17:10.597Z,90.80
2019-05-17T21:21:12.563Z,90.90
2019-05-17T21:25:14.707Z,90.90
2019-05-17T21:29:16.645Z,91.00
2019-05-17T21:33:18.524Z,91.60
2019-05-17T21:37:20.535Z,91.80
2019-05-17T21:41:22.511Z,91.50
2019-05-17T21:45:24.431Z,91.60
2019-05-17T21:49:26.322Z,91.70
2019-05-17T21:53:28.254Z,91.70
2019-05-17T21:57:30.149Z,91.90
2019-05-17T22:01:34.753Z,92.40
2019-05-17T22:05:36.650Z,92.90
2019-05-17T22:09:39.517Z,92.40
2019-05-17T22:13:41.428Z,92.60
2019-05-17T22:17:43.320Z,92.80
2019-05-17T22:21:45.239Z,93.20
2019-05-17T22:25:47.196Z,93.30
2019-05-17T22:29:49.106Z,92.90
2019-05-17T22:33:50.986Z,92.90
2019-05-17T22:37:52.906Z,93.50
2019-05-17T22:41:54.783Z,93.30
2019-05-17T22:45:56.805Z,93.10
2019-05-17T22:49:58.694Z,93.10
2019-05-17T22:54:00.613Z,93.30
2019-05-17T22:58:02.535Z,93.70
2019-05-17T23:02:05.510Z,93.40
2019-05-17T23:06:07.539Z,93.50
2019-05-17T23:10:09.625Z,93.90
2019-05-17T23:14:11.538Z,93.60
2019-05-17T23:18:13.459Z,93.50
2019-05-17T23:22:15.347Z,93.50
2019-05-17T23:26:17.249Z,93.90
2019-05-17T23:30:19.213Z,94.20
2019-05-17T23:34:21.159Z,93.90
2019-05-17T23:38:23.056Z,94.00
2019-05-17T23:42:24.944Z,94.30
2019-05-17T23:46:26.843Z,94.10
2019-05-17T23:50:28.749Z,94.10
2019-05-17T23:54:30.636Z,94.00
2019-05-17T23:58:32.542Z,94.40
